Time;durP1;ratioP1;P1;durP2;ratioP2;P2;SDS_P1;SDS_P2;PMS_P1;PMS_P2;Temp;Humidity;BMP_temperature;BMP_pressure;BME280_temperature;BME280_humidity;BME280_pressure;Samples;Min_cycle;Max_cycle;Signal;HPM_P1;HPM_P2
2023/10/16 00:02:15;;;;;;;4.97;1.40;;;6.90;95.50;;;;;;5051604;28;20053;-84
2023/10/16 00:04:43;;;;;;;1.92;1.02;;;6.90;95.60;;;;;;5051581;28;20045;-84
2023/10/16 00:07:13;;;;;;;3.63;1.48;;;6.80;95.60;;;;;;5051314;28;20045;-84
2023/10/16 00:09:40;;;;;;;4.30;1.65;;;6.80;95.90;;;;;;5050364;28;20368;-84
2023/10/16 00:12:07;;;;;;;6.30;1.58;;;6.80;95.90;;;;;;5032816;28;20040;-84
2023/10/16 00:14:35;;;;;;;3.65;1.20;;;6.80;95.70;;;;;;5050344;28;20052;-84
2023/10/16 00:17:03;;;;;;;3.58;1.50;;;6.80;95.80;;;;;;5016292;28;20045;-84
2023/10/16 00:19:33;;;;;;;3.60;0.90;;;6.80;95.80;;;;;;5033683;28;20417;-84
2023/10/16 00:22:00;;;;;;;3.05;1.10;;;6.80;96.00;;;;;;5033528;28;20076;-85
2023/10/16 00:24:26;;;;;;;5.55;1.20;;;6.80;96.10;;;;;;5049339;28;20468;-85
2023/10/16 00:26:52;;;;;;;4.63;1.47;;;6.80;96.30;;;;;;5049800;28;20128;-85
2023/10/16 00:29:23;;;;;;;5.13;1.33;;;6.80;96.50;;;;;;5032637;28;20326;-85
2023/10/16 00:31:52;;;;;;;1.98;1.00;;;6.80;96.70;;;;;;5049420;28;20078;-87
2023/10/16 00:34:21;;;;;;;1.33;0.90;;;6.80;96.90;;;;;;5049993;28;20041;-86
2023/10/16 00:36:54;;;;;;;5.32;1.00;;;6.90;97.10;;;;;;5031727;28;20083;-84
2023/10/16 00:39:20;;;;;;;4.10;1.23;;;6.90;97.30;;;;;;5050214;28;20090;-86
2023/10/16 00:41:49;;;;;;;2.80;1.40;;;6.90;97.50;;;;;;5049477;28;20502;-84
2023/10/16 00:44:16;;;;;;;3.40;1.15;;;7.00;97.60;;;;;;5063653;28;20052;-84
2023/10/16 00:46:45;;;;;;;4.28;1.08;;;6.90;97.70;;;;;;5032755;28;20127;-84
2023/10/16 00:49:14;;;;;;;3.92;1.20;;;7.00;97.60;;;;;;5048156;28;20041;-84
2023/10/16 00:51:41;;;;;;;5.20;1.27;;;7.00;97.60;;;;;;5031229;28;20048;-85
2023/10/16 00:54:16;;;;;;;;;;;7.00;97.40;;;;;;5048746;28;20056;-84
2023/10/16 00:56:43;;;;;;;2.47;0.82;;;7.00;96.60;;;;;;5070276;28;19933;-84
2023/10/16 00:59:15;;;;;;;5.60;1.73;;;7.00;97.40;;;;;;5048459;28;20796;-84
2023/10/16 01:01:43;;;;;;;5.10;1.30;;;7.00;97.50;;;;;;5069687;28;20120;-85
2023/10/16 01:04:10;;;;;;;3.20;1.13;;;7.00;97.50;;;;;;5031957;28;20071;-84
2023/10/16 01:06:36;;;;;;;4.13;1.13;;;7.00;97.50;;;;;;5031745;28;20120;-85
2023/10/16 01:09:09;;;;;;;1.40;1.13;;;7.00;97.80;;;;;;5048686;28;20088;-84
2023/10/16 01:11:38;;;;;;;3.65;1.08;;;7.00;97.60;;;;;;5031943;28;20083;-85
2023/10/16 01:14:05;;;;;;;2.50;1.38;;;7.00;97.40;;;;;;5048697;28;20045;-84
2023/10/16 01:16:31;;;;;;;1.23;0.80;;;6.90;97.40;;;;;;5047906;28;20062;-84
2023/10/16 01:19:03;;;;;;;4.20;1.27;;;6.90;97.40;;;;;;5047804;28;20056;-85
2023/10/16 01:21:31;;;;;;;4.43;1.10;;;7.00;97.60;;;;;;5032096;28;20288;-84
2023/10/16 01:24:02;;;;;;;2.97;0.93;;;6.90;97.70;;;;;;5048634;28;20049;-85
2023/10/16 01:26:29;;;;;;;4.22;0.98;;;6.90;97.80;;;;;;5052046;28;20087;-84
2023/10/16 01:28:55;;;;;;;3.17;1.02;;;6.80;97.80;;;;;;5035089;28;20132;-88
2023/10/16 01:31:21;;;;;;;5.80;0.90;;;6.90;98.00;;;;;;5051556;28;20586;-84
2023/10/16 01:33:48;;;;;;;4.65;1.45;;;6.90;98.30;;;;;;5051323;28;20048;-84
2023/10/16 01:36:13;;;;;;;;;;;6.80;98.30;;;;;;5050968;28;20041;-84
2023/10/16 01:38:39;;;;;;;5.05;1.67;;;6.80;98.40;;;;;;5063621;28;19928;-84
2023/10/16 01:41:06;;;;;;;2.83;0.98;;;6.90;98.60;;;;;;5051041;28;20486;-84
2023/10/16 01:43:34;;;;;;;4.90;1.17;;;6.90;98.80;;;;;;4979994;28;1119083;-86
2023/10/16 01:46:08;;;;;;;2.15;1.02;;;6.90;99.00;;;;;;5052171;28;20081;-85
2023/10/16 01:48:40;;;;;;;3.83;1.30;;;6.80;99.10;;;;;;5052667;28;20836;-86
2023/10/16 01:51:09;;;;;;;6.40;1.38;;;6.90;99.30;;;;;;5052291;28;20068;-84
2023/10/16 01:53:39;;;;;;;3.47;2.35;;;6.90;99.60;;;;;;5034884;28;20047;-84
2023/10/16 01:56:14;;;;;;;4.93;1.17;;;6.90;99.70;;;;;;5035292;28;20379;-84
2023/10/16 01:58:42;;;;;;;4.38;1.17;;;6.90;99.90;;;;;;5052300;28;20052;-85
2023/10/16 02:01:11;;;;;;;3.80;1.75;;;6.90;99.90;;;;;;5032899;28;20407;-84
2023/10/16 02:03:38;;;;;;;3.38;1.23;;;6.90;99.90;;;;;;5051127;28;20124;-84
2023/10/16 02:06:04;;;;;;;5.40;1.48;;;6.90;99.90;;;;;;5034668;28;20498;-85
2023/10/16 02:08:30;;;;;;;2.95;1.42;;;6.90;99.90;;;;;;5033157;28;20044;-84
2023/10/16 02:10:57;;;;;;;3.60;1.33;;;6.90;99.90;;;;;;5035512;28;20040;-84
2023/10/16 02:13:23;;;;;;;3.83;1.50;;;7.00;99.90;;;;;;5035772;28;20056;-84
2023/10/16 02:15:49;;;;;;;4.90;1.17;;;7.00;99.90;;;;;;5051617;28;20041;-86
2023/10/16 02:18:23;;;;;;;3.90;1.27;;;7.00;99.90;;;;;;5050516;28;20033;-85
2023/10/16 02:20:50;;;;;;;1.67;1.10;;;7.10;99.90;;;;;;5035519;28;20045;-84
2023/10/16 02:23:17;;;;;;;4.10;1.23;;;7.00;99.90;;;;;;5067844;28;20041;-84
2023/10/16 02:25:43;;;;;;;3.42;0.95;;;7.00;99.90;;;;;;5051968;28;20406;-84
2023/10/16 02:28:08;;;;;;;1.17;1.00;;;7.00;99.90;;;;;;5051347;28;20040;-84
2023/10/16 02:30:41;;;;;;;1.97;0.90;;;7.00;99.90;;;;;;5051197;28;20287;-85
2023/10/16 02:33:26;;;;;;;2.05;1.30;;;7.00;99.90;;;;;;5015952;28;20049;-87
2023/10/16 02:35:53;;;;;;;1.40;0.90;;;6.90;99.90;;;;;;5020178;28;20041;-84
2023/10/16 02:38:29;;;;;;;3.53;1.10;;;6.90;99.90;;;;;;5050814;28;20083;-84
2023/10/16 02:41:03;;;;;;;2.97;1.23;;;6.90;99.90;;;;;;5035129;28;20049;-84
2023/10/16 02:43:29;;;;;;;1.13;0.70;;;6.90;99.90;;;;;;5016027;28;20057;-84
2023/10/16 02:45:56;;;;;;;2.30;0.80;;;6.90;99.90;;;;;;5051524;28;20076;-84
2023/10/16 02:48:23;;;;;;;1.00;0.80;;;6.90;99.90;;;;;;5033688;28;20045;-84
2023/10/16 02:50:50;;;;;;;3.42;1.17;;;6.90;99.90;;;;;;5051443;28;20044;-84
2023/10/16 02:53:21;;;;;;;2.70;1.05;;;6.90;99.90;;;;;;5050193;28;20037;-85
2023/10/16 02:55:53;;;;;;;2.00;0.85;;;6.90;99.90;;;;;;5034803;28;20560;-85
2023/10/16 02:58:23;;;;;;;6.25;1.20;;;6.90;99.90;;;;;;5034054;28;20076;-84
2023/10/16 03:00:56;;;;;;;3.03;0.80;;;7.00;99.90;;;;;;5080649;28;20183;-88
2023/10/16 03:03:26;;;;;;;3.53;1.30;;;7.00;99.90;;;;;;5071681;28;20055;-84
2023/10/16 03:05:55;;;;;;;2.67;1.25;;;7.00;99.90;;;;;;5035405;28;20052;-84
2023/10/16 03:08:30;;;;;;;3.33;1.23;;;7.00;99.90;;;;;;5067101;28;20094;-84
2023/10/16 03:10:58;;;;;;;1.65;0.90;;;7.00;99.90;;;;;;5034331;28;20094;-84
2023/10/16 03:13:24;;;;;;;3.30;0.88;;;7.00;99.90;;;;;;5034272;28;20083;-84
2023/10/16 03:15:58;;;;;;;;;;;7.00;99.90;;;;;;5018261;28;20044;-86
2023/10/16 03:18:24;;;;;;;2.35;1.10;;;7.00;99.90;;;;;;5049627;28;19975;-84
2023/10/16 03:21:48;;;;;;;5.33;0.80;;;6.90;99.90;;;;;;5034040;28;20040;-84
2023/10/16 03:23:47;;;;;;;3.83;1.00;;;6.80;99.90;;;;;;5066049;28;20060;-84
2023/10/16 03:28:46;;;;;;;4.68;1.17;;;6.80;99.90;;;;;;5050490;28;20052;-85
2023/10/16 03:31:12;;;;;;;3.37;1.57;;;6.80;99.90;;;;;;5050169;28;20044;-88
2023/10/16 03:33:38;;;;;;;1.77;1.10;;;6.90;99.90;;;;;;5035660;28;20509;-85
2023/10/16 03:36:04;;;;;;;2.90;1.33;;;6.80;99.90;;;;;;5034226;28;20044;-84
2023/10/16 03:38:37;;;;;;;5.00;1.35;;;6.90;99.90;;;;;;5033816;28;20041;-84
2023/10/16 03:43:56;;;;;;;2.55;1.40;;;6.90;99.90;;;;;;5036676;28;20057;-84
2023/10/16 03:46:28;;;;;;;3.60;1.65;;;6.90;99.90;;;;;;5033321;28;20057;-85
2023/10/16 03:48:57;;;;;;;4.90;1.15;;;7.00;99.90;;;;;;5019682;28;20049;-84
2023/10/16 03:51:24;;;;;;;5.35;1.38;;;7.00;99.90;;;;;;5051003;28;20045;-84
2023/10/16 03:53:52;;;;;;;3.67;1.33;;;7.00;99.90;;;;;;5084927;28;20053;-84
2023/10/16 03:56:18;;;;;;;4.22;1.15;;;7.10;99.90;;;;;;5034172;28;20045;-85
2023/10/16 03:58:44;;;;;;;2.03;1.10;;;7.10;99.90;;;;;;5034554;28;20049;-84
2023/10/16 04:01:24;;;;;;;1.90;1.40;;;7.10;99.90;;;;;;5051073;28;20049;-84
2023/10/16 04:03:58;;;;;;;2.50;1.30;;;6.00;99.90;;;;;;5051223;28;20045;-84
2023/10/16 04:06:28;;;;;;;4.32;1.52;;;7.10;99.90;;;;;;5034134;28;20052;-84
2023/10/16 04:08:55;;;;;;;6.53;1.58;;;7.10;99.90;;;;;;5067710;28;20044;-84
2023/10/16 04:11:25;;;;;;;5.90;1.75;;;7.20;99.90;;;;;;5050585;28;20060;-84
2023/10/16 04:13:54;;;;;;;4.28;1.55;;;7.10;99.90;;;;;;5017923;28;20053;-84
2023/10/16 04:16:42;;;;;;;2.75;1.40;;;7.20;99.90;;;;;;5062339;28;20041;-85
2023/10/16 04:24:31;;;;;;;4.22;2.85;;;7.10;99.90;;;;;;5036901;28;20049;-84
2023/10/16 04:34:54;;;;;;;2.83;1.60;;;7.10;99.90;;;;;;5051186;28;20051;-84
2023/10/16 04:37:29;;;;;;;3.13;1.42;;;7.10;99.90;;;;;;5033430;28;20045;-88
2023/10/16 04:48:23;;;;;;;1.83;1.48;;;7.10;99.90;;;;;;5034449;28;20742;-84
2023/10/16 04:53:12;;;;;;;2.53;1.63;;;7.10;99.90;;;;;;5050286;28;20049;-85
2023/10/16 05:03:35;;;;;;;4.07;1.90;;;7.00;99.90;;;;;;5054651;28;20055;-84
2023/10/16 05:06:05;;;;;;;5.32;2.50;;;6.90;99.90;;;;;;5054476;28;20233;-84
2023/10/16 05:11:33;;;;;;;5.43;2.20;;;6.90;99.90;;;;;;5026381;28;20132;-84
2023/10/16 05:14:22;;;;;;;3.60;1.70;;;6.90;99.90;;;;;;5019837;28;20510;-84
2023/10/16 05:19:44;;;;;;;4.15;1.80;;;6.90;99.90;;;;;;5054415;28;20053;-85
2023/10/16 06:14:20;;;;;;;4.03;2.10;;;6.60;99.90;;;;;;5046509;28;20052;-85
2023/10/16 06:16:53;;;;;;;2.95;2.10;;;6.60;99.90;;;;;;5039236;28;20102;-86
2023/10/16 06:19:19;;;;;;;2.35;2.10;;;6.70;99.90;;;;;;5048739;28;20541;-84
2023/10/16 06:22:06;;;;;;;4.63;2.15;;;6.70;99.90;;;;;;5018265;28;20494;-86
2023/10/16 06:24:44;;;;;;;2.45;2.13;;;6.70;99.90;;;;;;5036194;28;20052;-84
2023/10/16 06:27:11;;;;;;;4.78;2.60;;;6.70;99.90;;;;;;5049966;28;20510;-84
2023/10/16 06:29:49;;;;;;;5.43;2.35;;;6.80;99.90;;;;;;5049313;28;20053;-84
2023/10/16 06:32:19;;;;;;;5.10;2.20;;;6.80;99.90;;;;;;5050393;28;20055;-84
2023/10/16 06:34:49;;;;;;;3.42;2.00;;;6.90;99.90;;;;;;5051336;28;20095;-85
2023/10/16 06:37:18;;;;;;;6.05;2.35;;;6.90;99.90;;;;;;5037644;28;20660;-84
2023/10/16 06:39:49;;;;;;;6.70;2.30;;;6.90;99.90;;;;;;5049431;28;20395;-84
2023/10/16 06:42:18;;;;;;;2.80;1.95;;;6.90;99.90;;;;;;5047576;28;20503;-85
2023/10/16 06:44:53;;;;;;;2.35;1.60;;;7.00;99.90;;;;;;5051591;28;20511;-82
2023/10/16 06:47:35;;;;;;;7.57;3.00;;;7.00;99.90;;;;;;5048283;28;20052;-84
2023/10/16 06:52:53;;;;;;;5.30;1.90;;;7.10;99.90;;;;;;5049727;28;20045;-83
2023/10/16 06:55:21;;;;;;;4.93;2.08;;;7.10;99.90;;;;;;5050839;28;20112;-88
2023/10/16 06:57:47;;;;;;;7.47;2.40;;;7.20;99.90;;;;;;5034164;28;20048;-87
2023/10/16 07:00:56;;;;;;;8.40;2.83;;;7.20;99.90;;;;;;5052095;28;20039;-87
2023/10/16 07:03:09;;;;;;;4.22;2.15;;;7.20;99.90;;;;;;5047956;28;20107;-88
2023/10/16 07:05:44;;;;;;;6.07;2.55;;;7.30;99.90;;;;;;5041247;28;20048;-87
2023/10/16 07:08:18;;;;;;;4.95;2.53;;;7.30;99.90;;;;;;5037641;28;20052;-87
2023/10/16 07:11:03;;;;;;;6.80;2.70;;;7.40;99.90;;;;;;5050530;28;20047;-85
2023/10/16 07:13:31;;;;;;;2.90;2.30;;;7.40;99.90;;;;;;5034134;28;20478;-87
2023/10/16 07:16:03;;;;;;;4.22;2.22;;;7.50;99.90;;;;;;5048626;28;20055;-87
2023/10/16 07:18:33;;;;;;;4.95;2.38;;;7.50;99.90;;;;;;5046643;28;20464;-91
2023/10/16 07:21:00;;;;;;;3.85;2.20;;;7.50;99.90;;;;;;5028224;28;20111;-88
2023/10/16 07:23:30;;;;;;;5.00;2.50;;;7.60;99.90;;;;;;5032735;28;20045;-88
2023/10/16 07:25:59;;;;;;;5.50;2.70;;;7.60;99.90;;;;;;5035081;28;20575;-88
2023/10/16 07:28:27;;;;;;;4.53;2.28;;;7.60;99.90;;;;;;5032642;28;20037;-88
2023/10/16 07:30:59;;;;;;;4.38;2.25;;;7.70;99.90;;;;;;5032069;28;20053;-88
2023/10/16 07:33:25;;;;;;;5.68;2.28;;;6.80;99.90;;;;;;5035016;28;20079;-88
2023/10/16 07:35:52;;;;;;;;;;;7.10;99.90;;;;;;5031788;28;20049;-89
2023/10/16 07:38:20;;;;;;;4.25;2.30;;;7.80;99.90;;;;;;5035127;28;20386;-90
2023/10/16 07:40:51;;;;;;;4.38;2.75;;;7.90;99.90;;;;;;5050275;28;20099;-87
2023/10/16 07:43:46;;;;;;;3.58;2.28;;;7.80;99.90;;;;;;5050149;28;20045;-86
2023/10/16 07:48:45;;;;;;;3.88;2.28;;;8.10;99.90;;;;;;5050508;28;20041;-86
2023/10/16 07:51:19;;;;;;;5.40;2.35;;;8.10;99.90;;;;;;5034101;28;21164;-87
2023/10/16 07:53:48;;;;;;;5.90;2.42;;;8.20;99.90;;;;;;5050303;28;20049;-89
2023/10/16 07:58:54;;;;;;;5.40;2.75;;;8.00;99.90;;;;;;5070389;28;20128;-86
2023/10/16 08:01:36;;;;;;;4.68;2.65;;;8.60;99.90;;;;;;5033907;28;20444;-86
2023/10/16 08:04:06;;;;;;;5.13;2.30;;;8.70;99.90;;;;;;5051115;28;20083;-87
2023/10/16 08:06:41;;;;;;;4.50;2.22;;;8.80;99.90;;;;;;5033232;28;20140;-87
2023/10/16 08:11:58;;;;;;;4.97;2.38;;;9.00;99.90;;;;;;5034738;28;20053;-89
2023/10/16 08:14:31;;;;;;;4.07;1.80;;;9.10;99.90;;;;;;5050314;28;20048;-86
2023/10/16 08:17:14;;;;;;;4.80;2.30;;;9.30;99.90;;;;;;5032763;28;20041;-85
2023/10/16 08:19:40;;;;;;;3.65;2.28;;;9.40;99.90;;;;;;5050460;28;20045;-86
2023/10/16 08:22:09;;;;;;;5.38;3.30;;;9.50;99.90;;;;;;5049873;28;20045;-85
2023/10/16 08:24:43;;;;;;;4.57;2.40;;;9.60;99.90;;;;;;5050159;28;20037;-88
2023/10/16 08:27:19;;;;;;;3.97;1.90;;;9.60;99.90;;;;;;5049786;28;20049;-84
2023/10/16 08:29:54;;;;;;;4.97;2.25;;;9.80;99.90;;;;;;5050518;28;20045;-85
2023/10/16 08:35:17;;;;;;;4.55;1.70;;;10.00;99.90;;;;;;5039618;28;20186;-85
2023/10/16 08:37:43;;;;;;;4.78;2.08;;;10.10;99.90;;;;;;5053926;28;20048;-87
2023/10/16 08:40:19;;;;;;;10.10;2.95;;;10.20;99.90;;;;;;5053147;28;20045;-83
2023/10/16 08:43:00;;;;;;;3.78;2.08;;;10.20;99.90;;;;;;5038882;28;20060;-85
2023/10/16 08:45:32;;;;;;;3.70;1.75;;;10.20;99.90;;;;;;5053138;28;20137;-85
2023/10/16 08:47:58;;;;;;;2.40;1.67;;;10.20;99.90;;;;;;5038747;28;20131;-85
2023/10/16 08:50:40;;;;;;;9.55;2.78;;;10.20;99.90;;;;;;5055550;28;20045;-85
2023/10/16 08:53:30;;;;;;;7.75;2.03;;;10.20;99.90;;;;;;5051680;28;20045;-85
2023/10/16 08:56:09;;;;;;;5.57;2.13;;;10.20;99.90;;;;;;5045552;28;20166;-85
2023/10/16 08:58:38;;;;;;;8.63;1.92;;;10.20;99.90;;;;;;5053348;28;20368;-85
2023/10/16 09:01:12;;;;;;;3.90;1.60;;;10.10;99.90;;;;;;5053320;28;20056;-85
2023/10/16 09:03:44;;;;;;;5.65;1.85;;;10.10;99.90;;;;;;5042209;28;20049;-86
2023/10/16 09:06:13;;;;;;;4.85;1.75;;;10.10;99.90;;;;;;5053421;28;20045;-85
2023/10/16 09:08:41;;;;;;;4.78;1.45;;;10.20;99.90;;;;;;5053376;28;20383;-86
2023/10/16 09:11:10;;;;;;;10.77;2.17;;;10.20;99.90;;;;;;5053052;28;20044;-85
2023/10/16 09:13:36;;;;;;;4.10;1.67;;;10.20;99.90;;;;;;5019808;28;20041;-85
2023/10/16 09:16:11;;;;;;;6.80;2.20;;;10.20;99.90;;;;;;5041566;28;20044;-86
2023/10/16 09:18:40;;;;;;;5.28;1.98;;;10.30;99.50;;;;;;5053391;28;20041;-86
2023/10/16 09:21:27;;;;;;;12.50;1.90;;;10.40;99.10;;;;;;5052812;28;20044;-86
2023/10/16 09:23:58;;;;;;;2.95;1.40;;;10.40;98.30;;;;;;5023379;28;20041;-86
2023/10/16 09:26:28;;;;;;;7.07;2.00;;;10.40;97.30;;;;;;5036711;28;20044;-86
2023/10/16 09:28:55;;;;;;;4.63;1.70;;;10.40;96.80;;;;;;5053340;28;20052;-86
2023/10/16 09:31:21;;;;;;;2.88;1.60;;;10.60;96.90;;;;;;5019863;28;20045;-86
2023/10/16 09:33:54;;;;;;;3.57;1.20;;;10.50;96.10;;;;;;5052996;28;20083;-86
2023/10/16 09:36:22;;;;;;;7.88;1.70;;;10.90;95.20;;;;;;5036061;28;20045;-86
2023/10/16 09:38:56;;;;;;;4.68;1.73;;;11.00;94.20;;;;;;5036481;28;20044;-86
2023/10/16 09:44:21;;;;;;;5.32;1.42;;;11.10;93.30;;;;;;5052145;28;20139;-85
2023/10/16 09:49:15;;;;;;;6.47;1.80;;;11.30;90.10;;;;;;5052740;28;20053;-86
2023/10/16 09:51:45;;;;;;;5.30;2.08;;;11.30;87.80;;;;;;5036350;28;20053;-86
2023/10/16 09:54:12;;;;;;;3.92;1.83;;;11.30;85.80;;;;;;5052127;28;20049;-86
2023/10/16 09:56:44;;;;;;;4.95;2.25;;;11.30;83.30;;;;;;5035795;28;20051;-86
2023/10/16 09:59:17;;;;;;;5.25;1.50;;;11.20;81.40;;;;;;5051933;28;20125;-86
2023/10/16 10:01:44;;;;;;;5.95;2.20;;;11.20;77.40;;;;;;5052315;28;20044;-86
2023/10/16 10:04:14;;;;;;;2.25;1.02;;;11.10;76.50;;;;;;5035656;28;20044;-85
2023/10/16 10:07:00;;;;;;;3.63;1.00;;;11.00;76.30;;;;;;5037565;28;20053;-87
2023/10/16 10:09:41;;;;;;;5.68;1.35;;;10.90;75.40;;;;;;5047738;28;20040;-86
2023/10/16 10:12:28;;;;;;;7.03;1.60;;;10.90;72.90;;;;;;5052273;28;20505;-86
2023/10/16 10:15:12;;;;;;;4.10;1.20;;;10.90;57.10;;;;;;5035702;28;20408;-86
2023/10/16 10:17:46;;;;;;;3.38;0.98;;;10.90;62.90;;;;;;5052520;28;20091;-86
2023/10/16 10:20:39;;;;;;;5.72;1.23;;;10.90;63.00;;;;;;5059849;28;20044;-86
2023/10/16 10:23:05;;;;;;;2.25;1.60;;;10.90;63.70;;;;;;5051864;28;20076;-85
2023/10/16 10:25:37;;;;;;;3.30;1.52;;;10.90;61.10;;;;;;5052001;28;20049;-86
2023/10/16 10:28:38;;;;;;;4.28;1.08;;;10.90;60.40;;;;;;5020288;28;20045;-85
2023/10/16 10:31:05;;;;;;;2.33;1.08;;;11.00;54.80;;;;;;5035237;28;20085;-85
2023/10/16 10:33:53;;;;;;;3.55;1.48;;;11.20;57.30;;;;;;5051880;28;20411;-86
2023/10/16 10:36:32;;;;;;;;;;;11.40;56.80;;;;;;5051898;28;20539;-85
2023/10/16 10:39:21;;;;;;;2.92;1.40;;;11.60;46.10;;;;;;5051853;28;20046;-86
2023/10/16 10:41:48;;;;;;;5.82;1.40;;;11.90;43.70;;;;;;5052418;28;20540;-84
2023/10/16 10:44:15;;;;;;;6.65;1.65;;;12.10;48.20;;;;;;5052547;28;20106;-84
2023/10/16 10:46:49;;;;;;;3.38;1.40;;;12.20;38.90;;;;;;5053487;28;20551;-84
2023/10/16 10:49:15;;;;;;;3.17;1.20;;;12.40;32.60;;;;;;5036224;28;20055;-84
2023/10/16 10:51:48;;;;;;;4.35;1.30;;;12.40;23.90;;;;;;5052531;28;20407;-85
2023/10/16 10:54:23;;;;;;;2.03;1.13;;;12.50;21.80;;;;;;5034506;28;20482;-86
2023/10/16 10:56:50;;;;;;;4.50;1.38;;;12.60;17.60;;;;;;5033605;28;20395;-85
2023/10/16 10:59:47;;;;;;;4.18;1.25;;;12.70;16.90;;;;;;5050775;28;20064;-86
2023/10/16 11:04:44;;;;;;;5.53;1.42;;;13.10;1.00;;;;;;5035319;28;20044;-86
2023/10/16 11:07:24;;;;;;;2.42;1.27;;;13.30;1.00;;;;;;5032151;28;20119;-86
2023/10/16 11:09:51;;;;;;;4.32;1.27;;;13.40;1.00;;;;;;5035020;28;20437;-86
2023/10/16 11:12:17;;;;;;;1.95;1.20;;;13.50;1.00;;;;;;5032856;28;20099;-86
2023/10/16 11:14:43;;;;;;;3.50;0.90;;;13.60;1.00;;;;;;5051220;28;20037;-85
2023/10/16 11:17:08;;;;;;;4.17;1.50;;;13.50;1.00;;;;;;5033972;28;20048;-86
2023/10/16 11:19:48;;;;;;;3.17;1.43;;;13.30;1.00;;;;;;5048261;28;20048;-85
2023/10/16 11:22:19;;;;;;;4.10;1.08;;;13.30;1.00;;;;;;5033691;28;20291;-85
2023/10/16 11:24:45;;;;;;;3.35;1.58;;;13.40;1.00;;;;;;5033891;28;20102;-85
2023/10/16 11:27:13;;;;;;;1.65;1.25;;;13.50;1.00;;;;;;5034497;28;20067;-85
2023/10/16 11:29:40;;;;;;;3.55;1.20;;;13.40;1.00;;;;;;5066245;28;20084;-86
2023/10/16 11:32:14;;;;;;;2.42;1.65;;;13.20;1.00;;;;;;5050752;28;20394;-86
2023/10/16 11:34:44;;;;;;;2.15;1.95;;;12.10;1.00;;;;;;5034346;28;20041;-86
2023/10/16 11:37:14;;;;;;;6.85;1.63;;;13.10;1.00;;;;;;5033727;28;20048;-86
2023/10/16 11:39:41;;;;;;;3.13;1.83;;;13.00;1.00;;;;;;5050600;28;20512;-85
2023/10/16 11:42:08;;;;;;;2.28;0.95;;;13.00;1.00;;;;;;5051750;28;20041;-86
2023/10/16 11:44:37;;;;;;;4.55;1.60;;;13.00;1.00;;;;;;5050090;28;20259;-85
2023/10/16 11:47:09;;;;;;;5.50;1.55;;;13.00;1.00;;;;;;5033920;28;20041;-86
2023/10/16 11:49:38;;;;;;;2.45;1.30;;;13.10;1.00;;;;;;5050336;28;20052;-86
2023/10/16 11:52:21;;;;;;;3.40;1.48;;;13.10;1.00;;;;;;5050391;28;20120;-86
2023/10/16 11:54:52;;;;;;;3.75;1.40;;;13.20;1.00;;;;;;5034029;28;20363;-86
2023/10/16 11:57:20;;;;;;;3.47;1.20;;;13.20;1.00;;;;;;5049805;28;20041;-86
2023/10/16 11:59:46;;;;;;;4.95;1.30;;;13.20;1.00;;;;;;5050128;28;20061;-86
2023/10/16 12:02:12;;;;;;;2.43;1.40;;;13.10;1.00;;;;;;5041949;28;20059;-86
2023/10/16 12:04:40;;;;;;;;;;;13.10;1.00;;;;;;5034015;28;20379;-86
2023/10/16 12:07:09;;;;;;;5.50;1.40;;;12.90;1.00;;;;;;5050107;28;19928;-85
2023/10/16 12:09:42;;;;;;;3.63;1.35;;;12.80;1.00;;;;;;5050201;28;20044;-86
2023/10/16 12:12:12;;;;;;;3.97;1.23;;;12.60;1.00;;;;;;5033903;28;20049;-86
2023/10/16 12:14:37;;;;;;;3.53;1.35;;;12.50;1.00;;;;;;5033424;28;20137;-86
2023/10/16 12:17:06;;;;;;;2.23;1.10;;;12.40;1.00;;;;;;5015435;28;20502;-86
2023/10/16 12:19:33;;;;;;;4.15;1.38;;;12.40;1.00;;;;;;5033114;28;20505;-86
2023/10/16 12:22:00;;;;;;;4.00;1.63;;;12.30;1.00;;;;;;5030778;28;20130;-86
2023/10/16 12:24:29;;;;;;;9.43;3.75;;;12.30;1.00;;;;;;5066771;28;20076;-86
2023/10/16 12:26:54;;;;;;;4.13;1.85;;;12.30;1.00;;;;;;5047774;28;20406;-85
2023/10/16 12:29:20;;;;;;;4.37;1.53;;;12.20;1.00;;;;;;5033324;28;20047;-87
2023/10/16 12:31:48;;;;;;;1.97;1.13;;;12.20;1.00;;;;;;5050023;28;20059;-86
2023/10/16 12:34:16;;;;;;;4.28;1.30;;;12.20;1.00;;;;;;5049834;28;20041;-86
2023/10/16 12:36:43;;;;;;;2.40;1.52;;;11.40;1.00;;;;;;5049444;28;20092;-86
2023/10/16 12:39:24;;;;;;;;;;;12.20;1.00;;;;;;5051673;28;20120;-86
2023/10/16 12:42:00;;;;;;;5.45;1.20;;;12.40;1.00;;;;;;5050314;28;19959;-86
2023/10/16 12:44:26;;;;;;;4.72;1.52;;;12.40;1.00;;;;;;5034344;28;20133;-86
2023/10/16 12:46:53;;;;;;;;;;;12.50;1.00;;;;;;5050045;28;20068;-86
2023/10/16 12:49:20;;;;;;;3.03;1.80;;;12.60;1.00;;;;;;5033783;28;19927;-86
2023/10/16 12:51:48;;;;;;;2.83;1.38;;;12.70;1.00;;;;;;5049471;28;20048;-86
2023/10/16 12:54:15;;;;;;;2.92;1.20;;;12.70;1.00;;;;;;5033554;28;20116;-86
2023/10/16 12:56:43;;;;;;;3.00;1.35;;;12.70;1.00;;;;;;5049365;28;20045;-86
2023/10/16 12:59:10;;;;;;;3.25;1.13;;;12.80;1.00;;;;;;5066327;28;20052;-86
2023/10/16 13:01:38;;;;;;;5.47;1.67;;;12.80;1.00;;;;;;5014950;28;20121;-86
2023/10/16 13:04:13;;;;;;;5.90;1.60;;;12.80;1.00;;;;;;5033368;28;20140;-86
2023/10/16 13:06:39;;;;;;;5.47;1.77;;;12.80;1.00;;;;;;5017560;28;20075;-86
2023/10/16 13:09:14;;;;;;;2.53;1.10;;;12.70;1.00;;;;;;5049661;28;20052;-86
2023/10/16 13:11:40;;;;;;;6.32;1.77;;;12.70;1.00;;;;;;5032802;28;20048;-86
2023/10/16 13:14:05;;;;;;;3.88;1.75;;;12.70;1.00;;;;;;5049907;28;20390;-85
2023/10/16 13:16:31;;;;;;;6.73;1.43;;;12.60;1.00;;;;;;5031332;28;20041;-86
2023/10/16 13:18:57;;;;;;;3.00;1.40;;;12.60;1.00;;;;;;5049606;28;20116;-86
2023/10/16 13:21:33;;;;;;;4.18;1.83;;;12.60;1.00;;;;;;5034100;28;20103;-86
2023/10/16 13:24:00;;;;;;;6.63;2.22;;;12.50;1.00;;;;;;5036851;28;20040;-87
2023/10/16 13:26:27;;;;;;;2.80;1.33;;;12.40;1.00;;;;;;5067652;28;20079;-86
2023/10/16 13:28:53;;;;;;;4.47;1.75;;;12.30;1.00;;;;;;5020615;28;20045;-87
2023/10/16 13:31:19;;;;;;;3.80;1.53;;;12.30;1.00;;;;;;5053342;28;20536;-86
2023/10/16 13:33:50;;;;;;;5.20;2.10;;;12.30;1.00;;;;;;5052652;28;20623;-86
2023/10/16 13:36:17;;;;;;;4.38;1.33;;;11.40;1.00;;;;;;5020891;28;20041;-85
2023/10/16 13:38:46;;;;;;;4.45;1.45;;;12.30;1.00;;;;;;5036548;28;20065;-86
2023/10/16 13:41:18;;;;;;;4.28;1.25;;;12.30;1.00;;;;;;5052898;28;20044;-85
2023/10/16 13:43:44;;;;;;;5.55;1.80;;;12.40;1.00;;;;;;5019365;28;20398;-86
2023/10/16 13:46:13;;;;;;;3.70;1.40;;;12.50;1.00;;;;;;5052756;28;20056;-86
2023/10/16 13:48:45;;;;;;;2.85;1.45;;;12.50;1.00;;;;;;5051117;28;20045;-86
2023/10/16 13:51:13;;;;;;;3.30;1.30;;;12.50;1.00;;;;;;5054466;28;20088;-86
2023/10/16 13:53:42;;;;;;;5.35;1.65;;;12.50;1.00;;;;;;5053924;28;20041;-86
2023/10/16 13:56:09;;;;;;;7.28;1.60;;;12.50;1.00;;;;;;5054157;28;20104;-86
2023/10/16 13:58:35;;;;;;;3.38;1.45;;;12.50;1.00;;;;;;5053506;28;20052;-86
2023/10/16 14:01:02;;;;;;;5.97;1.88;;;12.50;1.00;;;;;;5021096;28;20044;-86
2023/10/16 14:03:27;;;;;;;;;;;12.60;1.00;;;;;;5038099;28;20503;-86
2023/10/16 14:05:54;;;;;;;5.13;1.38;;;12.70;1.00;;;;;;5070336;28;19924;-86
2023/10/16 14:08:30;;;;;;;5.25;2.03;;;12.70;1.00;;;;;;5051940;28;20654;-87
2023/10/16 14:11:00;;;;;;;3.22;1.80;;;13.90;1.00;;;;;;5052677;28;20055;-88
2023/10/16 14:13:27;;;;;;;5.90;2.17;;;12.80;1.00;;;;;;5037732;28;20040;-87
2023/10/16 14:15:57;;;;;;;6.35;2.22;;;12.90;1.00;;;;;;5052835;28;20083;-87
2023/10/16 14:18:26;;;;;;;5.38;1.50;;;12.90;1.00;;;;;;5053645;28;20128;-86
2023/10/16 14:20:53;;;;;;;7.50;2.40;;;12.90;1.00;;;;;;5021212;28;20055;-86
2023/10/16 14:23:19;;;;;;;4.88;1.73;;;12.90;1.00;;;;;;5036773;28;20103;-87
2023/10/16 14:25:57;;;;;;;4.15;1.52;;;12.80;1.00;;;;;;5019969;28;20072;-86
2023/10/16 14:28:34;;;;;;;5.30;1.98;;;12.80;1.00;;;;;;5053393;28;20044;-87
2023/10/16 14:31:06;;;;;;;4.93;1.37;;;12.70;1.00;;;;;;5035494;28;20459;-86
2023/10/16 14:33:32;;;;;;;7.07;1.50;;;12.70;1.00;;;;;;5020853;28;20310;-86
2023/10/16 14:35:59;;;;;;;5.28;1.67;;;12.60;1.00;;;;;;5036251;28;20037;-87
2023/10/16 14:38:26;;;;;;;9.05;1.83;;;12.50;1.00;;;;;;5053121;28;20041;-87
2023/10/16 14:41:15;;;;;;;3.08;1.40;;;12.50;1.00;;;;;;5019895;28;20053;-87
2023/10/16 14:43:41;;;;;;;7.00;1.90;;;12.50;1.00;;;;;;5052598;28;20144;-87
2023/10/16 14:46:10;;;;;;;4.13;1.55;;;12.40;1.00;;;;;;5016475;28;20045;-86
2023/10/16 14:48:38;;;;;;;4.35;1.25;;;12.40;1.00;;;;;;5033276;28;20115;-86
2023/10/16 14:51:06;;;;;;;9.70;2.00;;;12.30;1.00;;;;;;5016886;28;20063;-87
2023/10/16 14:53:35;;;;;;;7.03;1.67;;;12.30;1.00;;;;;;5032902;28;20465;-86
2023/10/16 14:56:01;;;;;;;6.68;2.38;;;12.30;1.00;;;;;;5032611;28;20041;-87
2023/10/16 14:58:27;;;;;;;4.73;2.60;;;12.30;1.00;;;;;;5016648;28;20052;-87
2023/10/16 15:00:56;;;;;;;7.00;1.50;;;12.30;1.00;;;;;;5015989;28;20046;-87
2023/10/16 15:03:22;;;;;;;3.60;1.98;;;12.30;1.00;;;;;;5031979;28;20057;-86
2023/10/16 15:05:49;;;;;;;4.20;2.23;;;12.30;1.00;;;;;;5035791;28;20407;-87
2023/10/16 15:08:18;;;;;;;8.82;2.10;;;12.20;1.00;;;;;;5036485;28;20441;-87
2023/10/16 15:10:47;;;;;;;5.15;2.42;;;12.20;1.00;;;;;;5020290;28;20044;-87
2023/10/16 15:13:15;;;;;;;6.03;2.05;;;12.20;1.00;;;;;;5035843;28;20049;-86